createdAt,value
2017-07-23T00:00:56.053Z,99926
2017-07-23T00:01:55.388Z,99933
2017-07-23T00:02:55.472Z,99927
2017-07-23T00:03:55.622Z,99924
2017-07-23T00:04:56.580Z,99911
2017-07-23T00:05:56.348Z,99912
2017-07-23T00:06:55.662Z,99909
2017-07-23T00:07:54.727Z,99901
2017-07-23T00:08:56.582Z,99909
2017-07-23T00:09:54.875Z,99911
2017-07-23T00:10:55.313Z,99912
2017-07-23T00:11:55.063Z,99911
2017-07-23T00:12:56.723Z,99900
2017-07-23T00:13:56.078Z,99907
2017-07-23T00:14:55.171Z,99900
2017-07-23T00:15:56.197Z,99890
2017-07-23T00:16:57.387Z,99883
2017-07-23T00:17:55.494Z,99888
2017-07-23T00:18:57.279Z,99890
2017-07-23T00:19:55.562Z,99894
2017-07-23T00:20:55.616Z,99891
2017-07-23T00:21:57.463Z,99888
2017-07-23T00:22:57.715Z,99889
2017-07-23T00:23:55.860Z,99885
2017-07-23T00:24:57.600Z,99888
2017-07-23T00:25:57.687Z,99892
2017-07-23T00:26:57.659Z,99884
2017-07-23T00:27:56.103Z,99898
2017-07-23T00:28:56.377Z,99898
2017-07-23T00:29:57.050Z,99903
2017-07-23T00:30:56.202Z,99900
2017-07-23T00:31:57.234Z,99902
2017-07-23T00:32:57.252Z,99903
2017-07-23T00:33:57.941Z,99898
2017-07-23T00:34:56.661Z,99903
2017-07-23T00:35:56.460Z,99903
2017-07-23T00:36:57.496Z,99894
2017-07-23T00:37:57.464Z,99904
2017-07-23T00:38:56.686Z,99903
2017-07-23T00:39:56.630Z,99904
2017-07-23T00:40:58.017Z,99907
2017-07-23T00:41:56.782Z,99899
2017-07-23T00:42:56.943Z,99906
2017-07-23T00:43:57.017Z,99911
2017-07-23T00:44:58.083Z,99915
2017-07-23T00:45:57.100Z,99911
2017-07-23T00:46:57.446Z,99909
2017-07-23T00:47:57.272Z,99907
2017-07-23T00:48:58.317Z,99908
2017-07-23T00:49:59.231Z,99906
2017-07-23T00:50:57.525Z,99919
2017-07-23T00:51:57.689Z,99924
2017-07-23T00:52:59.009Z,99923
2017-07-23T00:53:59.506Z,99925
2017-07-23T00:54:59.443Z,99923
2017-07-23T00:55:58.854Z,99920
2017-07-23T00:56:58.923Z,99921
2017-07-23T00:57:58.946Z,99920
2017-07-23T00:58:59.148Z,99920
2017-07-23T00:59:57.963Z,99921
2017-07-23T01:00:58.130Z,99920
2017-07-23T01:01:58.245Z,99908
2017-07-23T01:02:58.183Z,99917
2017-07-23T01:03:59.938Z,99919
2017-07-23T01:04:59.740Z,99924
2017-07-23T01:06:00.100Z,99921
2017-07-23T01:06:59.413Z,99919
2017-07-23T01:08:00.270Z,99915
2017-07-23T01:09:00.201Z,99919
2017-07-23T01:09:58.579Z,99917
2017-07-23T01:10:59.007Z,99906
2017-07-23T01:11:58.854Z,99906
2017-07-23T01:12:58.970Z,99905
2017-07-23T01:13:59.097Z,99903
2017-07-23T01:15:00.134Z,99901
2017-07-23T01:16:00.773Z,99898
2017-07-23T01:17:01.160Z,99903
2017-07-23T01:17:59.203Z,99901
2017-07-23T01:18:59.384Z,99897
2017-07-23T01:20:01.005Z,99906
2017-07-23T01:20:59.339Z,99906
2017-07-23T01:21:59.413Z,99906
2017-07-23T01:23:00.626Z,99905
2017-07-23T01:23:59.394Z,99906
2017-07-23T01:24:59.557Z,99910
2017-07-23T01:25:59.542Z,99905
2017-07-23T01:27:00.664Z,99897
2017-07-23T01:28:00.728Z,99886
2017-07-23T01:29:00.913Z,99884
2017-07-23T01:30:01.552Z,99877
2017-07-23T01:30:59.889Z,99886
2017-07-23T01:32:00.011Z,99889
2017-07-23T01:32:59.890Z,99896
2017-07-23T01:34:01.068Z,99900
2017-07-23T01:35:00.452Z,99900
2017-07-23T01:36:00.183Z,99898
2017-07-23T01:37:01.264Z,99895
2017-07-23T01:38:01.303Z,99889
2017-07-23T01:39:00.395Z,99888
2017-07-23T01:40:00.354Z,99884
2017-07-23T01:41:01.568Z,99878
2017-07-23T01:42:01.386Z,99882
2017-07-23T01:43:00.525Z,99881
2017-07-23T01:44:00.631Z,99888
2017-07-23T01:45:00.662Z,99884
2017-07-23T01:46:00.582Z,99877
2017-07-23T01:47:01.036Z,99881
2017-07-23T01:48:00.850Z,99887
2017-07-23T01:49:02.588Z,99883
2017-07-23T01:50:02.512Z,99893
2017-07-23T01:51:01.951Z,99895
2017-07-23T01:52:02.753Z,99891
2017-07-23T01:53:03.116Z,99890
2017-07-23T01:54:02.835Z,99880
2017-07-23T01:55:02.149Z,99888
2017-07-23T01:56:01.088Z,99893
2017-07-23T01:57:02.058Z,99894
2017-07-23T01:58:02.069Z,99888
2017-07-23T01:59:01.535Z,99888
2017-07-23T02:00:01.294Z,99889
2017-07-23T02:01:02.190Z,99884
2017-07-23T02:02:02.246Z,99886
2017-07-23T02:03:03.030Z,99881
2017-07-23T02:04:02.395Z,99892
2017-07-23T02:05:02.874Z,99888
2017-07-23T02:06:01.518Z,99889
2017-07-23T02:07:01.532Z,99884
2017-07-23T02:08:03.235Z,99882
2017-07-23T02:09:02.651Z,99883
2017-07-23T02:10:01.653Z,99883
2017-07-23T02:11:03.025Z,99883
2017-07-23T02:12:03.541Z,99881
2017-07-23T02:13:01.953Z,99884
2017-07-23T02:14:01.924Z,99881
2017-07-23T02:15:02.026Z,99880
2017-07-23T02:16:02.074Z,99878
2017-07-23T02:17:02.290Z,99879
2017-07-23T02:18:03.120Z,99882
2017-07-23T02:19:02.157Z,99876
2017-07-23T02:20:03.799Z,99877
2017-07-23T02:21:03.877Z,99866
2017-07-23T02:22:03.207Z,99870
2017-07-23T02:23:04.347Z,99862
2017-07-23T02:24:03.975Z,99855
2017-07-23T02:25:04.157Z,99858
2017-07-23T02:26:02.384Z,99857
2017-07-23T02:27:04.208Z,99856
2017-07-23T02:28:02.450Z,99857
2017-07-23T02:29:02.759Z,99854
2017-07-23T02:30:02.636Z,99862
2017-07-23T02:31:02.634Z,99860
2017-07-23T02:32:02.777Z,99863
2017-07-23T02:33:04.411Z,99859
2017-07-23T02:34:02.922Z,99857
2017-07-23T02:35:03.140Z,99866
2017-07-23T02:36:02.934Z,99863
2017-07-23T02:37:02.950Z,99856
2017-07-23T02:38:03.127Z,99860
2017-07-23T02:39:04.091Z,99853
2017-07-23T02:40:03.993Z,99861
2017-07-23T02:41:05.094Z,99854
2017-07-23T02:42:03.218Z,99846
2017-07-23T02:43:04.141Z,99839
2017-07-23T02:44:04.267Z,99846
2017-07-23T02:45:04.190Z,99838
2017-07-23T02:46:04.369Z,99825
2017-07-23T02:47:03.744Z,99829
2017-07-23T02:48:05.028Z,99829
2017-07-23T02:49:03.453Z,99826
2017-07-23T02:50:04.321Z,99827
2017-07-23T02:51:03.441Z,99827
2017-07-23T02:52:05.319Z,99818
2017-07-23T02:53:04.957Z,99827
2017-07-23T02:54:03.698Z,99826
2017-07-23T02:55:05.505Z,99829
2017-07-23T02:56:03.799Z,99834
2017-07-23T02:57:03.820Z,99827
2017-07-23T02:58:05.562Z,99834
2017-07-23T02:59:04.342Z,99830
2017-07-23T03:00:04.074Z,99836
2017-07-23T03:01:04.129Z,99834
2017-07-23T03:02:05.001Z,99828
2017-07-23T03:03:04.175Z,99825
2017-07-23T03:04:04.284Z,99827
2017-07-23T03:05:04.645Z,99826
2017-07-23T03:06:04.306Z,99827
2017-07-23T03:07:04.480Z,99830
2017-07-23T03:08:04.429Z,99833
2017-07-23T03:09:04.551Z,99842
2017-07-23T03:10:04.637Z,99852
2017-07-23T03:11:05.797Z,99858
2017-07-23T03:12:04.715Z,99857
2017-07-23T03:13:05.765Z,99862
2017-07-23T03:14:05.722Z,99860
2017-07-23T03:15:04.763Z,99846
2017-07-23T03:16:05.938Z,99853
2017-07-23T03:17:06.127Z,99846
2017-07-23T03:18:04.948Z,99845
2017-07-23T03:19:06.635Z,99842
2017-07-23T03:20:05.107Z,99849
2017-07-23T03:21:06.018Z,99853
2017-07-23T03:22:06.879Z,99855
2017-07-23T03:23:05.443Z,99859
2017-07-23T03:24:05.304Z,99862
2017-07-23T03:25:07.084Z,99865
2017-07-23T03:26:06.368Z,99860
2017-07-23T03:27:05.468Z,99867
2017-07-23T03:28:07.174Z,99872
2017-07-23T03:29:05.821Z,99869
2017-07-23T03:30:06.690Z,99879
2017-07-23T03:31:07.377Z,99889
2017-07-23T03:32:05.846Z,99893
2017-07-23T03:33:05.844Z,99895
2017-07-23T03:34:06.756Z,99897
2017-07-23T03:35:06.147Z,99897
2017-07-23T03:36:07.538Z,99899
2017-07-23T03:37:07.553Z,99904
2017-07-23T03:38:07.670Z,99901
2017-07-23T03:39:05.944Z,99907
2017-07-23T03:40:06.123Z,99909
2017-07-23T03:41:08.033Z,99911
2017-07-23T03:42:07.766Z,99909
2017-07-23T03:43:06.163Z,99925
2017-07-23T03:44:06.295Z,99929
2017-07-23T03:45:07.237Z,99932
2017-07-23T03:46:06.357Z,99932
2017-07-23T03:47:06.685Z,99928
2017-07-23T03:48:08.269Z,99928
2017-07-23T03:49:08.360Z,99927
2017-07-23T03:50:06.770Z,99926
2017-07-23T03:51:08.407Z,99925
2017-07-23T03:52:06.841Z,99925
2017-07-23T03:53:07.245Z,99924
2017-07-23T03:54:06.849Z,99923
2017-07-23T03:55:08.617Z,99923
2017-07-23T03:56:06.994Z,99915
2017-07-23T03:57:07.063Z,99920
2017-07-23T03:58:07.130Z,99926
2017-07-23T03:59:07.501Z,99923
2017-07-23T04:00:07.300Z,99926
2017-07-23T04:01:07.222Z,99922
2017-07-23T04:02:07.275Z,99923
2017-07-23T04:03:07.381Z,99915
2017-07-23T04:04:09.019Z,99924
2017-07-23T04:05:07.649Z,99920
2017-07-23T04:06:07.437Z,99929
2017-07-23T04:07:07.598Z,99932
2017-07-23T04:08:09.356Z,99926
2017-07-23T04:09:07.752Z,99930
2017-07-23T04:10:07.736Z,99928
2017-07-23T04:11:08.105Z,99923
2017-07-23T04:12:07.924Z,99927
2017-07-23T04:13:08.991Z,99934
2017-07-23T04:14:09.080Z,99944
2017-07-23T04:15:09.089Z,99952
2017-07-23T04:16:09.163Z,99963
2017-07-23T04:17:09.531Z,99969
2017-07-23T04:18:08.263Z,99966
2017-07-23T04:19:10.085Z,99974
2017-07-23T04:20:09.465Z,99975
2017-07-23T04:21:08.576Z,99975
2017-07-23T04:22:08.654Z,99980
2017-07-23T04:23:10.505Z,99979
2017-07-23T04:24:08.728Z,99977
2017-07-23T04:25:09.778Z,99984
2017-07-23T04:26:09.858Z,99976
2017-07-23T04:27:09.038Z,99986
2017-07-23T04:28:10.688Z,99986
2017-07-23T04:29:09.441Z,99984
2017-07-23T04:30:10.219Z,99986
2017-07-23T04:31:09.311Z,99986
2017-07-23T04:32:09.294Z,99984
2017-07-23T04:33:11.794Z,99986
2017-07-23T04:34:11.206Z,99984
2017-07-23T04:35:09.756Z,99984
2017-07-23T04:36:11.311Z,99985
2017-07-23T04:37:11.390Z,99989
2017-07-23T04:38:09.690Z,99989
2017-07-23T04:39:09.698Z,99987
2017-07-23T04:40:10.674Z,100000
2017-07-23T04:41:10.997Z,99994
2017-07-23T04:42:11.540Z,100006
2017-07-23T04:43:09.887Z,100012
2017-07-23T04:44:10.033Z,100011
2017-07-23T04:45:12.821Z,100013
2017-07-23T04:46:11.085Z,100013
2017-07-23T04:47:11.298Z,100013
2017-07-23T04:48:10.112Z,100006
2017-07-23T04:49:11.101Z,100016
2017-07-23T04:50:10.269Z,100020
2017-07-23T04:51:11.296Z,100023
2017-07-23T04:52:10.311Z,100022
2017-07-23T04:53:10.604Z,100026
2017-07-23T04:54:10.493Z,100026
2017-07-23T04:55:11.434Z,100024
2017-07-23T04:56:10.539Z,100025
2017-07-23T04:57:10.555Z,100026
2017-07-23T04:58:10.636Z,100024
2017-07-23T04:59:12.100Z,100028
2017-07-23T05:00:12.612Z,100021
2017-07-23T05:01:10.848Z,100032
2017-07-23T05:02:11.839Z,100036
2017-07-23T05:03:10.936Z,100038
2017-07-23T05:04:12.094Z,100039
2017-07-23T05:05:11.447Z,100040
2017-07-23T05:06:12.796Z,100038
2017-07-23T05:07:11.157Z,100032
2017-07-23T05:08:12.914Z,100039
2017-07-23T05:09:12.242Z,100036
2017-07-23T05:10:13.018Z,100045
2017-07-23T05:11:11.734Z,100046
2017-07-23T05:12:11.443Z,100048
2017-07-23T05:13:11.582Z,100050
2017-07-23T05:14:11.615Z,100052
2017-07-23T05:15:12.684Z,100049
2017-07-23T05:16:13.300Z,100046
2017-07-23T05:24:53.257Z,100045
2017-07-23T05:25:52.124Z,100052
2017-07-23T05:26:52.077Z,100058
2017-07-23T05:27:52.104Z,100049
2017-07-23T05:28:52.280Z,100055
2017-07-23T05:29:53.224Z,100055
2017-07-23T05:30:53.617Z,100056
2017-07-23T05:31:52.382Z,100061
2017-07-23T05:32:52.434Z,100061
2017-07-23T05:33:52.593Z,100062
2017-07-23T05:34:54.270Z,100060
2017-07-23T05:35:53.703Z,100055
2017-07-23T05:36:52.919Z,100061
2017-07-23T05:37:54.362Z,100066
2017-07-23T05:38:52.779Z,100061
2017-07-23T05:39:54.611Z,100061
2017-07-23T05:40:53.854Z,100055
2017-07-23T05:41:54.027Z,100061
2017-07-23T05:42:53.290Z,100059
2017-07-23T05:43:54.030Z,100061
2017-07-23T05:44:54.931Z,100062
2017-07-23T05:45:53.254Z,100057
2017-07-23T05:46:53.361Z,100068
2017-07-23T05:47:53.396Z,100070
2017-07-23T05:48:54.712Z,100060
2017-07-23T05:49:54.400Z,100070
2017-07-23T05:50:53.613Z,100069
2017-07-23T05:51:53.661Z,100069
2017-07-23T05:52:54.679Z,100075
2017-07-23T05:53:55.370Z,100077
2017-07-23T05:54:53.997Z,100077
2017-07-23T05:55:55.476Z,100075
2017-07-23T05:56:55.659Z,100074
2017-07-23T05:57:53.969Z,100081
2017-07-23T05:58:54.055Z,100075
2017-07-23T05:59:55.062Z,100071
2017-07-23T06:00:56.182Z,100081
2017-07-23T06:01:55.236Z,100081
2017-07-23T06:02:54.347Z,100081
2017-07-23T06:03:55.287Z,100089
2017-07-23T06:04:54.524Z,100081
2017-07-23T06:05:54.584Z,100087
2017-07-23T06:06:56.619Z,100090
2017-07-23T06:07:55.561Z,100076
2017-07-23T06:08:54.630Z,100084
2017-07-23T06:09:54.798Z,100079
2017-07-23T06:10:54.796Z,100087
2017-07-23T06:11:54.943Z,100085
2017-07-23T06:12:55.298Z,100090
2017-07-23T06:13:56.043Z,100077
2017-07-23T06:14:56.723Z,100078
2017-07-23T06:15:56.784Z,100082
2017-07-23T06:16:55.188Z,100081
2017-07-23T06:17:55.247Z,100083
2017-07-23T06:18:55.650Z,100084
2017-07-23T06:19:57.108Z,100086
2017-07-23T06:20:57.190Z,100081
2017-07-23T06:21:55.486Z,100089
2017-07-23T06:22:57.224Z,100093
2017-07-23T06:23:57.279Z,100090
2017-07-23T06:24:57.741Z,100087
2017-07-23T06:25:56.625Z,100087
2017-07-23T06:26:55.829Z,100083
2017-07-23T06:27:57.459Z,100089
2017-07-23T06:28:56.895Z,100077
2017-07-23T06:29:55.888Z,100087
2017-07-23T06:30:56.342Z,100090
2017-07-23T06:31:56.001Z,100089
2017-07-23T06:32:56.099Z,100089
2017-07-23T06:33:56.166Z,100086
2017-07-23T06:34:57.886Z,100088
2017-07-23T06:35:56.198Z,100091
2017-07-23T06:36:56.442Z,100090
2017-07-23T06:37:57.165Z,100090
2017-07-23T06:38:57.933Z,100081
2017-07-23T06:39:56.404Z,100088
2017-07-23T06:40:56.373Z,100093
2017-07-23T06:41:58.138Z,100090
2017-07-23T06:42:58.589Z,100078
2017-07-23T06:43:56.573Z,100088
2017-07-23T06:44:56.655Z,100094
2017-07-23T06:45:57.738Z,100096
2017-07-23T06:46:56.732Z,100094
2017-07-23T06:47:56.829Z,100086
2017-07-23T06:48:58.867Z,100095
2017-07-23T06:49:57.887Z,100094
2017-07-23T06:50:56.960Z,100096
2017-07-23T06:51:58.738Z,100098
2017-07-23T06:52:57.035Z,100096
2017-07-23T06:53:57.227Z,100096
2017-07-23T06:54:57.552Z,100096
2017-07-23T06:55:58.168Z,100097
2017-07-23T06:56:57.318Z,100094
2017-07-23T06:57:58.334Z,100101
2017-07-23T06:58:59.013Z,100086
2017-07-23T06:59:58.477Z,100096
2017-07-23T07:00:57.676Z,100093
2017-07-23T07:01:58.454Z,100092
2017-07-23T07:02:57.541Z,100096
2017-07-23T07:03:59.296Z,100100
2017-07-23T07:04:59.473Z,100093
2017-07-23T07:05:57.866Z,100097
2017-07-23T07:06:58.146Z,100101
2017-07-23T07:07:57.899Z,100094
2017-07-23T07:08:58.936Z,100095
2017-07-23T07:09:58.837Z,100097
2017-07-23T07:10:59.606Z,100086
2017-07-23T07:11:58.059Z,100100
2017-07-23T07:13:00.116Z,100101
2017-07-23T07:13:58.134Z,100101
2017-07-23T07:14:58.110Z,100102
2017-07-23T07:15:58.202Z,100106
2017-07-23T07:17:00.091Z,100110
2017-07-23T07:17:59.397Z,100108
2017-07-23T07:19:00.489Z,100100
2017-07-23T07:19:58.499Z,100107
2017-07-23T07:20:58.629Z,100114
2017-07-23T07:21:59.608Z,100115
2017-07-23T07:22:58.641Z,100119
2017-07-23T07:24:00.328Z,100116
2017-07-23T07:25:00.103Z,100115
2017-07-23T07:25:59.709Z,100115
2017-07-23T07:26:58.928Z,100113
2017-07-23T07:27:58.937Z,100116
2017-07-23T07:28:58.885Z,100117
2017-07-23T07:30:00.037Z,100107
2017-07-23T07:30:59.368Z,100102
2017-07-23T07:32:00.027Z,100112
2017-07-23T07:32:59.150Z,100112
2017-07-23T07:33:59.310Z,100104
2017-07-23T07:34:59.329Z,100106
2017-07-23T07:35:59.255Z,100106
2017-07-23T07:37:00.567Z,100104
2017-07-23T07:37:59.479Z,100106
2017-07-23T07:39:00.363Z,100108
2017-07-23T07:39:59.515Z,100106
2017-07-23T07:40:59.597Z,100103
2017-07-23T07:41:59.554Z,100105
2017-07-23T07:42:59.910Z,100096
2017-07-23T07:44:00.589Z,100099
2017-07-23T07:44:59.643Z,100111
2017-07-23T07:45:59.689Z,100103
2017-07-23T07:46:59.702Z,100111
2017-07-23T07:47:59.838Z,100110
2017-07-23T07:49:00.144Z,100109
2017-07-23T07:50:01.632Z,100094
2017-07-23T07:50:59.872Z,100099
2017-07-23T07:51:59.880Z,100103
2017-07-23T07:53:00.015Z,100105
2017-07-23T07:54:00.951Z,100100
2017-07-23T07:55:01.335Z,100105
2017-07-23T07:56:00.144Z,100104
2017-07-23T07:57:01.954Z,100100
2017-07-23T07:58:00.262Z,100103
2017-07-23T07:59:02.061Z,100097
2017-07-23T08:00:00.270Z,100095
2017-07-23T08:01:02.325Z,100096
2017-07-23T08:02:01.453Z,100107
2017-07-23T08:03:01.468Z,100113
2017-07-23T08:04:01.481Z,100105
2017-07-23T08:05:00.436Z,100113
2017-07-23T08:06:00.563Z,100104
2017-07-23T08:07:02.460Z,100101
2017-07-23T08:08:01.507Z,100101
2017-07-23T08:09:01.586Z,100089
2017-07-23T08:10:01.694Z,100095
2017-07-23T08:11:01.726Z,100099
2017-07-23T08:12:01.663Z,100097
2017-07-23T08:13:02.042Z,100089
2017-07-23T08:14:01.870Z,100100
2017-07-23T08:15:00.900Z,100098
2017-07-23T08:16:01.853Z,100099
2017-07-23T08:17:02.568Z,100096
2017-07-23T08:18:01.064Z,100094
2017-07-23T08:19:01.351Z,100095
2017-07-23T08:20:02.753Z,100099
2017-07-23T08:21:02.169Z,100097
2017-07-23T08:22:01.225Z,100092
2017-07-23T08:23:02.976Z,100086
2017-07-23T08:24:02.309Z,100094
2017-07-23T08:25:01.534Z,100098
2017-07-23T08:26:01.428Z,100096
2017-07-23T08:27:03.146Z,100094
2017-07-23T08:28:02.605Z,100095
2017-07-23T08:29:01.642Z,100089
2017-07-23T08:30:01.696Z,100086
2017-07-23T08:31:01.992Z,100096
2017-07-23T08:32:01.664Z,100099
2017-07-23T08:33:01.670Z,100099
2017-07-23T08:34:01.711Z,100096
2017-07-23T08:35:03.532Z,100097
2017-07-23T08:36:03.519Z,100092
2017-07-23T08:37:02.149Z,100100
2017-07-23T08:38:01.860Z,100104
2017-07-23T08:39:01.909Z,100092
2017-07-23T08:40:02.031Z,100105
2017-07-23T08:41:03.059Z,100101
2017-07-23T08:42:02.124Z,100101
2017-07-23T08:43:02.402Z,100100
2017-07-23T08:44:03.037Z,100102
2017-07-23T08:45:02.184Z,100104
2017-07-23T08:46:03.194Z,100104
2017-07-23T08:47:03.833Z,100101
2017-07-23T08:48:02.253Z,100104
2017-07-23T08:49:03.672Z,100104
2017-07-23T08:50:03.262Z,100109
2017-07-23T08:51:04.162Z,100100
2017-07-23T08:52:02.475Z,100110
2017-07-23T08:53:02.506Z,100101
2017-07-23T08:54:04.244Z,100103
2017-07-23T08:55:04.581Z,100104
2017-07-23T08:56:03.781Z,100094
2017-07-23T08:57:03.803Z,100113
2017-07-23T08:58:02.867Z,100103
2017-07-23T08:59:02.787Z,100103
2017-07-23T09:00:03.872Z,100107
2017-07-23T09:01:03.186Z,100115
2017-07-23T09:02:04.528Z,100111
2017-07-23T09:03:04.688Z,100107
2017-07-23T09:04:04.778Z,100110
2017-07-23T09:05:04.116Z,100102
2017-07-23T09:06:03.186Z,100110
2017-07-23T09:07:03.436Z,100114
2017-07-23T09:08:03.221Z,100117
2017-07-23T09:09:03.221Z,100111
2017-07-23T09:10:03.343Z,100114
2017-07-23T09:11:03.332Z,100123
2017-07-23T09:12:05.027Z,100114
2017-07-23T09:13:04.710Z,100120
2017-07-23T09:14:04.512Z,100111
2017-07-23T09:15:03.614Z,100124
2017-07-23T09:16:03.603Z,100120
2017-07-23T09:17:03.699Z,100120
2017-07-23T09:18:05.300Z,100125
2017-07-23T09:19:04.958Z,100122
2017-07-23T09:20:03.796Z,100123
2017-07-23T09:21:03.807Z,100130
2017-07-23T09:22:05.417Z,100131
2017-07-23T09:23:03.738Z,100125
2017-07-23T09:24:03.839Z,100113
2017-07-23T09:25:04.036Z,100122
2017-07-23T09:26:03.863Z,100130
2017-07-23T09:27:03.977Z,100121
2017-07-23T09:28:03.988Z,100126
2017-07-23T09:29:03.987Z,100125
2017-07-23T09:30:05.583Z,100131
2017-07-23T09:31:05.298Z,100126
2017-07-23T09:32:05.752Z,100130
2017-07-23T09:33:04.254Z,100125
2017-07-23T09:34:04.162Z,100136
2017-07-23T09:35:06.033Z,100133
2017-07-23T09:36:06.029Z,100132
2017-07-23T09:37:05.664Z,100131
2017-07-23T09:38:04.499Z,100135
2017-07-23T09:39:06.171Z,100133
2017-07-23T09:40:04.578Z,100132
2017-07-23T09:41:05.743Z,100135
2017-07-23T09:42:04.690Z,100131
2017-07-23T09:43:06.843Z,100135
2017-07-23T09:44:04.770Z,100135
2017-07-23T09:45:04.883Z,100126
2017-07-23T09:46:04.969Z,100122
2017-07-23T09:47:04.988Z,100131
2017-07-23T09:48:05.040Z,100132
2017-07-23T09:49:07.020Z,100134
2017-07-23T09:50:05.040Z,100126
2017-07-23T09:51:05.156Z,100123
2017-07-23T09:52:06.031Z,100124
2017-07-23T09:53:06.826Z,100120
2017-07-23T09:54:07.026Z,100127
2017-07-23T09:55:05.642Z,100130
2017-07-23T09:56:06.350Z,100128
2017-07-23T09:57:07.096Z,100127
2017-07-23T09:58:07.096Z,100126
2017-07-23T09:59:05.313Z,100117
2017-07-23T10:00:05.331Z,100127
2017-07-23T10:01:07.476Z,100128
2017-07-23T10:02:05.469Z,100122
2017-07-23T10:03:06.766Z,100128
2017-07-23T10:04:07.592Z,100119
2017-07-23T10:05:05.874Z,100125
2017-07-23T10:06:07.756Z,100124
2017-07-23T10:07:06.490Z,100125
2017-07-23T10:08:07.704Z,100127
2017-07-23T10:09:07.012Z,100125
2017-07-23T10:10:07.054Z,100125
2017-07-23T10:11:06.329Z,100117
2017-07-23T10:12:06.417Z,100124
2017-07-23T10:13:07.696Z,100124
2017-07-23T10:14:06.473Z,100116
2017-07-23T10:15:08.111Z,100120
2017-07-23T10:16:07.568Z,100127
2017-07-23T10:17:07.615Z,100131
2017-07-23T10:18:07.591Z,100127
2017-07-23T10:19:06.945Z,100124
2017-07-23T10:20:06.697Z,100131
2017-07-23T10:21:06.586Z,100115
2017-07-23T10:22:06.775Z,100119
2017-07-23T10:23:07.692Z,100109
2017-07-23T10:24:08.600Z,100123
2017-07-23T10:25:08.827Z,100118
2017-07-23T10:26:07.893Z,100120
2017-07-23T10:27:07.924Z,100111
2017-07-23T10:28:08.805Z,100116
2017-07-23T10:29:07.122Z,100120
2017-07-23T10:30:08.015Z,100120
2017-07-23T10:31:07.419Z,100122
2017-07-23T10:32:08.635Z,100118
2017-07-23T10:33:07.934Z,100125
2017-07-23T10:34:07.063Z,100122
2017-07-23T10:35:07.950Z,100124
2017-07-23T10:36:08.144Z,100119
2017-07-23T10:37:09.047Z,100111
2017-07-23T10:38:07.127Z,100109
2017-07-23T10:39:07.255Z,100108
2017-07-23T10:40:08.830Z,100111
2017-07-23T10:41:07.337Z,100110
2017-07-23T10:42:08.396Z,100092
2017-07-23T10:43:07.790Z,100118
2017-07-23T10:44:08.464Z,100118
2017-07-23T10:45:07.479Z,100119
2017-07-23T10:46:09.262Z,100124
2017-07-23T10:47:09.192Z,100112
2017-07-23T10:48:07.596Z,100128
2017-07-23T10:49:08.999Z,100126
2017-07-23T10:50:07.700Z,100129
2017-07-23T10:51:08.754Z,100125
2017-07-23T10:52:09.539Z,100134
2017-07-23T10:53:07.793Z,100133
2017-07-23T10:54:07.934Z,100131
2017-07-23T10:55:09.811Z,100127
2017-07-23T10:56:09.673Z,100134
2017-07-23T10:57:09.678Z,100131
2017-07-23T10:58:07.955Z,100133
2017-07-23T10:59:09.659Z,100138
2017-07-23T11:00:08.159Z,100132
2017-07-23T11:01:09.412Z,100138
2017-07-23T11:02:09.332Z,100131
2017-07-23T11:03:08.353Z,100131
2017-07-23T11:04:09.507Z,100133
2017-07-23T11:05:08.573Z,100131
2017-07-23T11:06:08.676Z,100125
2017-07-23T11:07:08.985Z,100134
2017-07-23T11:08:10.488Z,100137
2017-07-23T11:09:10.589Z,100135
2017-07-23T11:10:09.894Z,100134
2017-07-23T11:11:08.871Z,100131
2017-07-23T11:12:08.989Z,100129
2017-07-23T11:13:10.869Z,100133
2017-07-23T11:14:09.892Z,100135
2017-07-23T11:15:09.023Z,100130
2017-07-23T11:16:09.149Z,100133
2017-07-23T11:17:09.100Z,100128
2017-07-23T11:18:10.101Z,100136
2017-07-23T11:19:10.496Z,100133
2017-07-23T11:20:09.222Z,100120
2017-07-23T11:21:10.919Z,100121
2017-07-23T11:22:09.311Z,100122
2017-07-23T11:23:09.486Z,100127
2017-07-23T11:24:09.606Z,100120
2017-07-23T11:25:09.771Z,100125
2017-07-23T11:26:09.578Z,100125
2017-07-23T11:27:10.745Z,100130
2017-07-23T11:28:09.801Z,100125
2017-07-23T11:29:11.415Z,100118
2017-07-23T11:30:11.426Z,100123
2017-07-23T11:31:10.180Z,100123
2017-07-23T11:32:10.996Z,100126
2017-07-23T11:33:09.902Z,100128
2017-07-23T11:34:09.912Z,100123
2017-07-23T11:35:09.912Z,100121
2017-07-23T11:36:11.007Z,100131
2017-07-23T11:37:12.033Z,100134
2017-07-23T11:38:11.630Z,100119
2017-07-23T11:39:11.795Z,100127
2017-07-23T11:40:10.087Z,100120
2017-07-23T11:41:10.113Z,100124
2017-07-23T11:42:11.815Z,100111
2017-07-23T11:43:10.506Z,100123
2017-07-23T11:44:10.236Z,100118
2017-07-23T11:45:10.428Z,100119
2017-07-23T11:46:10.526Z,100124
2017-07-23T11:47:10.431Z,100118
2017-07-23T11:48:10.429Z,100115
2017-07-23T11:49:12.542Z,100117
2017-07-23T11:50:10.598Z,100112
2017-07-23T11:51:10.561Z,100112
2017-07-23T11:52:12.374Z,100112
2017-07-23T11:53:10.746Z,100113
2017-07-23T11:54:10.787Z,100104
2017-07-23T11:55:12.174Z,100108
2017-07-23T11:56:10.921Z,100103
2017-07-23T11:57:10.912Z,100107
2017-07-23T11:58:11.032Z,100112
2017-07-23T11:59:10.958Z,100097
2017-07-23T12:00:12.110Z,100106
2017-07-23T12:01:11.358Z,100107
2017-07-23T12:02:11.938Z,100103
2017-07-23T12:03:11.296Z,100100
2017-07-23T12:04:13.036Z,100102
2017-07-23T12:05:11.360Z,100103
2017-07-23T12:06:12.312Z,100099
2017-07-23T12:07:11.735Z,100102
2017-07-23T12:08:11.377Z,100099
2017-07-23T12:09:12.350Z,100098
2017-07-23T12:10:13.283Z,100097
2017-07-23T12:11:11.632Z,100096
2017-07-23T12:12:11.580Z,100095
2017-07-23T12:13:12.988Z,100092
2017-07-23T12:14:11.720Z,100101
2017-07-23T12:15:11.913Z,100103
2017-07-23T12:16:11.940Z,100110
2017-07-23T12:17:11.915Z,100109
2017-07-23T12:18:12.106Z,100108
2017-07-23T12:19:12.332Z,100103
2017-07-23T12:20:13.189Z,100116
2017-07-23T12:21:13.877Z,100105
2017-07-23T12:22:12.217Z,100111
2017-07-23T12:23:13.902Z,100096
2017-07-23T12:24:13.253Z,100100
2017-07-23T12:25:12.551Z,100098
2017-07-23T12:26:14.164Z,100099
2017-07-23T12:27:12.512Z,100104
2017-07-23T12:28:13.478Z,100119
2017-07-23T12:29:13.519Z,100111
2017-07-23T12:30:12.736Z,100114
2017-07-23T12:31:13.159Z,100110
2017-07-23T12:32:13.808Z,100110
2017-07-23T12:33:12.905Z,100109
2017-07-23T12:34:13.808Z,100117
2017-07-23T12:35:14.587Z,100115
2017-07-23T12:36:13.001Z,100117
2017-07-23T12:37:15.072Z,100110
2017-07-23T12:38:14.037Z,100116
2017-07-23T12:39:14.752Z,100119
2017-07-23T12:40:13.273Z,100127
2017-07-23T12:41:14.858Z,100121
2017-07-23T12:42:13.376Z,100137
2017-07-23T12:43:14.690Z,100124
2017-07-23T12:44:13.368Z,100123
2017-07-23T12:45:13.458Z,100121
2017-07-23T12:46:15.261Z,100129